sensor_id;sensor_type;location;lat;lon;timestamp;pressure;altitude;pressure_sealevel;temperature;humidity
39301;BME280;25019;42.626;23.380;2023-02-18T00:00:14;95191.63;;;2.06;69.86
39301;BME280;25019;42.626;23.380;2023-02-18T00:02:42;95183.13;;;2.04;70.08
39301;BME280;25019;42.626;23.380;2023-02-18T00:05:07;95139.53;;;1.65;70.54
39301;BME280;25019;42.626;23.380;2023-02-18T00:07:34;95191.69;;;1.98;70.97
39301;BME280;25019;42.626;23.380;2023-02-18T00:10:00;95175.13;;;1.98;70.79
39301;BME280;25019;42.626;23.380;2023-02-18T00:12:26;95144.28;;;1.85;71.55
39301;BME280;25019;42.626;23.380;2023-02-18T00:14:51;95163.31;;;2.02;71.15
39301;BME280;25019;42.626;23.380;2023-02-18T00:17:17;95158.25;;;2.00;71.00
39301;BME280;25019;42.626;23.380;2023-02-18T00:19:42;95109.53;;;1.68;71.57
39301;BME280;25019;42.626;23.380;2023-02-18T00:22:08;95149.47;;;1.93;71.55
39301;BME280;25019;42.626;23.380;2023-02-18T00:24:34;95148.03;;;1.90;72.23
39301;BME280;25019;42.626;23.380;2023-02-18T00:26:59;95156.03;;;1.89;72.28
39301;BME280;25019;42.626;23.380;2023-02-18T00:29:25;95099.66;;;1.55;71.98
39301;BME280;25019;42.626;23.380;2023-02-18T00:31:51;95011.25;;;0.95;72.59
39301;BME280;25019;42.626;23.380;2023-02-18T00:34:16;95123.41;;;1.76;72.30
39301;BME280;25019;42.626;23.380;2023-02-18T00:36:42;95123.28;;;1.70;72.74
39301;BME280;25019;42.626;23.380;2023-02-18T00:39:10;95126.84;;;1.77;72.36
39301;BME280;25019;42.626;23.380;2023-02-18T00:41:38;95107.41;;;1.71;72.68
39301;BME280;25019;42.626;23.380;2023-02-18T00:44:04;95111.16;;;1.69;72.67
39301;BME280;25019;42.626;23.380;2023-02-18T00:46:30;95119.22;;;1.67;73.35
39301;BME280;25019;42.626;23.380;2023-02-18T00:48:56;95008.81;;;0.94;72.97
39301;BME280;25019;42.626;23.380;2023-02-18T00:51:22;95125.53;;;1.73;72.75
39301;BME280;25019;42.626;23.380;2023-02-18T00:53:49;95122.78;;;1.74;72.73
39301;BME280;25019;42.626;23.380;2023-02-18T00:56:15;95063.13;;;1.38;72.36
39301;BME280;25019;42.626;23.380;2023-02-18T00:58:41;95121.44;;;1.78;72.85
39301;BME280;25019;42.626;23.380;2023-02-18T01:01:07;95114.44;;;1.71;73.06
39301;BME280;25019;42.626;23.380;2023-02-18T01:03:37;95120.94;;;1.75;72.75
39301;BME280;25019;42.626;23.380;2023-02-18T01:06:04;95031.69;;;1.15;73.29
39301;BME280;25019;42.626;23.380;2023-02-18T01:08:32;95026.47;;;1.15;72.41
39301;BME280;25019;42.626;23.380;2023-02-18T01:10:58;95123.75;;;1.73;72.59
39301;BME280;25019;42.626;23.380;2023-02-18T01:13:25;95121.94;;;1.74;72.92
39301;BME280;25019;42.626;23.380;2023-02-18T01:15:51;95127.31;;;1.81;72.14
39301;BME280;25019;42.626;23.380;2023-02-18T01:18:16;95068.66;;;1.43;72.45
39301;BME280;25019;42.626;23.380;2023-02-18T01:20:44;95047.13;;;1.33;72.22
39301;BME280;25019;42.626;23.380;2023-02-18T01:23:10;95122.53;;;1.84;72.12
39301;BME280;25019;42.626;23.380;2023-02-18T01:25:36;95061.09;;;1.48;71.54
39301;BME280;25019;42.626;23.380;2023-02-18T01:28:03;95120.34;;;1.88;71.90
39301;BME280;25019;42.626;23.380;2023-02-18T01:30:30;94994.31;;;1.06;71.56
39301;BME280;25019;42.626;23.380;2023-02-18T01:32:56;95106.91;;;1.91;71.37
39301;BME280;25019;42.626;23.380;2023-02-18T01:35:22;95112.78;;;1.93;71.46
39301;BME280;25019;42.626;23.380;2023-02-18T01:37:49;95115.25;;;1.94;71.50
39301;BME280;25019;42.626;23.380;2023-02-18T01:40:18;95108.00;;;1.97;71.21
39301;BME280;25019;42.626;23.380;2023-02-18T01:42:45;95102.50;;;1.91;70.83
39301;BME280;25019;42.626;23.380;2023-02-18T01:48:01;95113.63;;;1.93;71.11
39301;BME280;25019;42.626;23.380;2023-02-18T01:50:28;95128.25;;;2.03;71.11
39301;BME280;25019;42.626;23.380;2023-02-18T01:52:54;95020.16;;;1.32;70.40
39301;BME280;25019;42.626;23.380;2023-02-18T01:55:20;95120.75;;;2.00;70.39
39301;BME280;25019;42.626;23.380;2023-02-18T01:57:46;95135.66;;;1.99;70.64
39301;BME280;25019;42.626;23.380;2023-02-18T02:00:17;95121.63;;;1.92;70.33
39301;BME280;25019;42.626;23.380;2023-02-18T02:02:47;95069.28;;;1.45;71.61
39301;BME280;25019;42.626;23.380;2023-02-18T02:05:14;95123.13;;;1.71;71.84
39301;BME280;25019;42.626;23.380;2023-02-18T02:07:41;95063.66;;;1.33;70.98
39301;BME280;25019;42.626;23.380;2023-02-18T02:10:10;95129.28;;;1.78;71.47
39301;BME280;25019;42.626;23.380;2023-02-18T02:15:33;94996.88;;;0.91;72.10
39301;BME280;25019;42.626;23.380;2023-02-18T02:44:20;95063.81;;;1.32;71.75
39301;BME280;25019;42.626;23.380;2023-02-18T02:46:54;95105.06;;;1.53;72.48
39301;BME280;25019;42.626;23.380;2023-02-18T02:49:40;95110.75;;;1.57;72.22
39301;BME280;25019;42.626;23.380;2023-02-18T02:52:13;95079.28;;;1.42;72.42
39301;BME280;25019;42.626;23.380;2023-02-18T02:54:41;95026.88;;;1.03;72.66
39301;BME280;25019;42.626;23.380;2023-02-18T02:59:49;95088.06;;;1.49;72.27
39301;BME280;25019;42.626;23.380;2023-02-18T03:08:21;95092.50;;;1.48;71.89
39301;BME280;25019;42.626;23.380;2023-02-18T03:10:56;95099.50;;;1.56;71.45
39301;BME280;25019;42.626;23.380;2023-02-18T03:17:03;95110.19;;;1.70;71.03
39301;BME280;25019;42.626;23.380;2023-02-18T03:19:39;95103.69;;;1.66;70.89
39301;BME280;25019;42.626;23.380;2023-02-18T03:22:15;95068.66;;;1.43;71.11
39301;BME280;25019;42.626;23.380;2023-02-18T03:24:45;95112.00;;;1.69;71.87
39301;BME280;25019;42.626;23.380;2023-02-18T03:27:22;95114.44;;;1.71;71.90
39301;BME280;25019;42.626;23.380;2023-02-18T03:30:16;95132.94;;;1.69;71.99
39301;BME280;25019;42.626;23.380;2023-02-18T03:32:46;95140.16;;;1.67;71.47
39301;BME280;25019;42.626;23.380;2023-02-18T03:35:16;95150.97;;;1.64;72.40
39301;BME280;25019;42.626;23.380;2023-02-18T03:38:08;95147.56;;;1.63;72.50
39301;BME280;25019;42.626;23.380;2023-02-18T03:40:31;95085.22;;;1.12;71.85
39301;BME280;25019;42.626;23.380;2023-02-18T03:42:59;95146.28;;;1.59;72.15
39301;BME280;25019;42.626;23.380;2023-02-18T03:45:26;95095.28;;;1.24;71.90
39301;BME280;25019;42.626;23.380;2023-02-18T03:47:52;95168.31;;;1.65;72.20
39301;BME280;25019;42.626;23.380;2023-02-18T03:50:18;95176.75;;;1.52;73.53
39301;BME280;25019;42.626;23.380;2023-02-18T03:52:43;95173.66;;;1.48;73.81
39301;BME280;25019;42.626;23.380;2023-02-18T03:55:09;95180.34;;;1.51;73.22
39301;BME280;25019;42.626;23.380;2023-02-18T03:57:35;95184.13;;;1.48;73.72
39301;BME280;25019;42.626;23.380;2023-02-18T04:00:01;95100.34;;;0.94;73.74
39301;BME280;25019;42.626;23.380;2023-02-18T04:02:38;95181.03;;;1.45;73.86
39301;BME280;25019;42.626;23.380;2023-02-18T04:05:04;95113.03;;;1.05;73.85
39301;BME280;25019;42.626;23.380;2023-02-18T04:07:31;95158.34;;;1.37;73.99
39301;BME280;25019;42.626;23.380;2023-02-18T04:09:57;95101.13;;;1.02;74.05
39301;BME280;25019;42.626;23.380;2023-02-18T04:12:23;95155.75;;;1.29;74.39
39301;BME280;25019;42.626;23.380;2023-02-18T04:14:48;95131.63;;;1.18;74.69
39301;BME280;25019;42.626;23.380;2023-02-18T04:17:14;95142.34;;;1.32;74.76
39301;BME280;25019;42.626;23.380;2023-02-18T04:19:40;95063.13;;;0.83;74.79
39301;BME280;25019;42.626;23.380;2023-02-18T04:22:05;95129.78;;;1.27;74.94
39301;BME280;25019;42.626;23.380;2023-02-18T04:24:31;95000.22;;;0.45;74.89
39301;BME280;25019;42.626;23.380;2023-02-18T04:26:57;94974.72;;;0.16;75.37
39301;BME280;25019;42.626;23.380;2023-02-18T04:29:22;95050.69;;;0.46;76.52
39301;BME280;25019;42.626;23.380;2023-02-18T04:31:48;95044.38;;;0.40;76.96
39301;BME280;25019;42.626;23.380;2023-02-18T04:34:13;95060.84;;;0.32;77.32
39301;BME280;25019;42.626;23.380;2023-02-18T04:36:39;95127.66;;;0.91;77.32
39301;BME280;25019;42.626;23.380;2023-02-18T04:39:05;95114.25;;;0.86;76.72
39301;BME280;25019;42.626;23.380;2023-02-18T04:41:30;95128.94;;;0.95;76.35
39301;BME280;25019;42.626;23.380;2023-02-18T04:43:56;95000.16;;;0.22;75.61
39301;BME280;25019;42.626;23.380;2023-02-18T04:46:23;95125.63;;;1.10;75.33
39301;BME280;25019;42.626;23.380;2023-02-18T04:48:49;95086.13;;;0.88;75.38
39301;BME280;25019;42.626;23.380;2023-02-18T04:51:15;95127.75;;;1.06;75.99
39301;BME280;25019;42.626;23.380;2023-02-18T04:53:41;95136.25;;;1.08;76.52
39301;BME280;25019;42.626;23.380;2023-02-18T04:56:06;95131.19;;;1.07;76.82
39301;BME280;25019;42.626;23.380;2023-02-18T04:58:32;95131.66;;;1.10;76.75
39301;BME280;25019;42.626;23.380;2023-02-18T05:01:02;95139.50;;;1.10;76.91
39301;BME280;25019;42.626;23.380;2023-02-18T05:03:31;95142.25;;;1.17;76.49
39301;BME280;25019;42.626;23.380;2023-02-18T05:05:57;95133.47;;;1.10;76.15
39301;BME280;25019;42.626;23.380;2023-02-18T05:08:22;95150.09;;;1.17;76.87
39301;BME280;25019;42.626;23.380;2023-02-18T05:10:48;95085.66;;;0.84;76.12
39301;BME280;25019;42.626;23.380;2023-02-18T05:13:14;95084.56;;;0.79;76.02
39301;BME280;25019;42.626;23.380;2023-02-18T05:15:40;95102.78;;;0.95;76.00
39301;BME280;25019;42.626;23.380;2023-02-18T05:18:06;95137.31;;;1.22;75.96
39301;BME280;25019;42.626;23.380;2023-02-18T05:20:32;95153.28;;;1.36;75.64
39301;BME280;25019;42.626;23.380;2023-02-18T05:22:58;95041.31;;;0.68;75.46
39301;BME280;25019;42.626;23.380;2023-02-18T05:25:24;95076.50;;;0.88;75.98
39301;BME280;25019;42.626;23.380;2023-02-18T05:27:49;95157.81;;;1.42;75.72
39301;BME280;25019;42.626;23.380;2023-02-18T05:30:15;95147.19;;;1.43;75.37
39301;BME280;25019;42.626;23.380;2023-02-18T05:32:41;95051.47;;;0.94;75.16
39301;BME280;25019;42.626;23.380;2023-02-18T05:35:07;95134.81;;;1.60;74.57
39301;BME280;25019;42.626;23.380;2023-02-18T05:37:33;95115.78;;;1.67;74.44
39301;BME280;25019;42.626;23.380;2023-02-18T05:39:59;94978.03;;;0.72;74.05
39301;BME280;25019;42.626;23.380;2023-02-18T05:42:24;95123.13;;;1.71;73.33
39301;BME280;25019;42.626;23.380;2023-02-18T05:44:50;95104.53;;;1.58;73.45
39301;BME280;25019;42.626;23.380;2023-02-18T05:47:16;95111.81;;;1.71;73.21
39301;BME280;25019;42.626;23.380;2023-02-18T05:49:42;95137.31;;;1.77;73.23
39301;BME280;25019;42.626;23.380;2023-02-18T05:52:09;95097.16;;;1.61;72.33
39301;BME280;25019;42.626;23.380;2023-02-18T05:54:35;95131.81;;;1.87;72.62
39301;BME280;25019;42.626;23.380;2023-02-18T05:57:02;95105.72;;;1.78;72.91
39301;BME280;25019;42.626;23.380;2023-02-18T05:59:28;95131.44;;;1.75;73.32
39301;BME280;25019;42.626;23.380;2023-02-18T06:01:54;95143.06;;;1.95;72.54
39301;BME280;25019;42.626;23.380;2023-02-18T06:04:19;95099.78;;;1.61;72.95
39301;BME280;25019;42.626;23.380;2023-02-18T06:06:45;95151.59;;;2.13;72.17
39301;BME280;25019;42.626;23.380;2023-02-18T06:09:12;95165.91;;;2.25;71.94
39301;BME280;25019;42.626;23.380;2023-02-18T06:11:37;95167.00;;;2.31;71.46
39301;BME280;25019;42.626;23.380;2023-02-18T06:14:04;95092.28;;;1.97;71.15
39301;BME280;25019;42.626;23.380;2023-02-18T06:16:30;95145.63;;;2.42;71.14
39301;BME280;25019;42.626;23.380;2023-02-18T06:18:55;95039.69;;;1.83;71.17
39301;BME280;25019;42.626;23.380;2023-02-18T06:21:21;95152.88;;;2.70;70.18
39301;BME280;25019;42.626;23.380;2023-02-18T06:23:47;95154.22;;;2.81;70.17
39301;BME280;25019;42.626;23.380;2023-02-18T06:26:13;95100.06;;;2.43;69.45
39301;BME280;25019;42.626;23.380;2023-02-18T06:28:38;95083.31;;;2.44;68.47
39301;BME280;25019;42.626;23.380;2023-02-18T06:31:04;95147.63;;;2.85;68.89
39301;BME280;25019;42.626;23.380;2023-02-18T06:33:30;95149.69;;;3.05;68.67
39301;BME280;25019;42.626;23.380;2023-02-18T06:36:01;95147.63;;;3.15;67.58
39301;BME280;25019;42.626;23.380;2023-02-18T06:38:28;95129.69;;;3.19;67.90
39301;BME280;25019;42.626;23.380;2023-02-18T06:40:53;95136.16;;;3.38;67.58
39301;BME280;25019;42.626;23.380;2023-02-18T06:43:20;95120.53;;;3.51;66.96
39301;BME280;25019;42.626;23.380;2023-02-18T06:45:45;95140.69;;;3.66;65.74
39301;BME280;25019;42.626;23.380;2023-02-18T06:48:12;95121.31;;;3.67;65.03
39301;BME280;25019;42.626;23.380;2023-02-18T06:50:37;95106.03;;;3.77;64.92
39301;BME280;25019;42.626;23.380;2023-02-18T06:53:03;95138.69;;;4.11;64.76
39301;BME280;25019;42.626;23.380;2023-02-18T06:55:29;95136.72;;;4.20;63.95
39301;BME280;25019;42.626;23.380;2023-02-18T06:57:54;95123.13;;;4.38;63.41
39301;BME280;25019;42.626;23.380;2023-02-18T07:00:20;95106.56;;;4.44;62.46
39301;BME280;25019;42.626;23.380;2023-02-18T07:02:47;95127.75;;;4.64;62.04
39301;BME280;25019;42.626;23.380;2023-02-18T07:05:12;95134.25;;;4.69;60.75
39301;BME280;25019;42.626;23.380;2023-02-18T07:07:38;95111.09;;;4.57;59.51
39301;BME280;25019;42.626;23.380;2023-02-18T07:10:05;95141.44;;;4.88;59.50
39301;BME280;25019;42.626;23.380;2023-02-18T07:12:31;95126.44;;;4.82;59.76
39301;BME280;25019;42.626;23.380;2023-02-18T07:14:56;95117.22;;;4.64;60.70
39301;BME280;25019;42.626;23.380;2023-02-18T07:17:22;95130.50;;;4.85;60.95
39301;BME280;25019;42.626;23.380;2023-02-18T07:19:47;95127.81;;;4.78;61.53
39301;BME280;25019;42.626;23.380;2023-02-18T07:22:13;95131.31;;;4.85;61.83
39301;BME280;25019;42.626;23.380;2023-02-18T07:24:39;95124.25;;;4.86;62.09
39301;BME280;25019;42.626;23.380;2023-02-18T07:27:04;95115.34;;;4.87;61.78
39301;BME280;25019;42.626;23.380;2023-02-18T07:29:30;95128.00;;;5.12;60.94
39301;BME280;25019;42.626;23.380;2023-02-18T07:31:56;95070.75;;;4.78;61.27
39301;BME280;25019;42.626;23.380;2023-02-18T07:34:21;95057.25;;;4.95;60.79
39301;BME280;25019;42.626;23.380;2023-02-18T07:36:47;95117.13;;;5.35;60.91
39301;BME280;25019;42.626;23.380;2023-02-18T07:39:13;95130.28;;;5.28;61.34
39301;BME280;25019;42.626;23.380;2023-02-18T07:41:38;95130.50;;;5.27;59.89
39301;BME280;25019;42.626;23.380;2023-02-18T07:44:13;95134.06;;;5.05;60.39
39301;BME280;25019;42.626;23.380;2023-02-18T07:46:40;95141.75;;;5.07;60.22
39301;BME280;25019;42.626;23.380;2023-02-18T07:49:05;95102.72;;;4.75;59.47
39301;BME280;25019;42.626;23.380;2023-02-18T07:51:31;95162.31;;;5.32;58.64
39301;BME280;25019;42.626;23.380;2023-02-18T07:53:56;95163.84;;;5.61;58.49
39301;BME280;25019;42.626;23.380;2023-02-18T07:56:22;95164.72;;;5.89;57.50
39301;BME280;25019;42.626;23.380;2023-02-18T07:58:48;95066.97;;;5.57;57.59
39301;BME280;25019;42.626;23.380;2023-02-18T08:01:14;95158.72;;;6.22;57.29
39301;BME280;25019;42.626;23.380;2023-02-18T08:03:40;95156.91;;;6.36;56.58
39301;BME280;25019;42.626;23.380;2023-02-18T08:06:06;95150.00;;;6.55;55.84
39301;BME280;25019;42.626;23.380;2023-02-18T08:08:33;95139.63;;;6.60;55.31
39301;BME280;25019;42.626;23.380;2023-02-18T08:11:00;95140.81;;;6.78;55.69
39301;BME280;25019;42.626;23.380;2023-02-18T08:13:32;95135.31;;;6.93;54.93
39301;BME280;25019;42.626;23.380;2023-02-18T08:15:58;95082.94;;;6.69;53.82
39301;BME280;25019;42.626;23.380;2023-02-18T08:18:25;95143.13;;;7.33;52.87
39301;BME280;25019;42.626;23.380;2023-02-18T08:20:50;95141.63;;;7.50;52.06
39301;BME280;25019;42.626;23.380;2023-02-18T08:23:19;95144.25;;;7.50;52.42
39301;BME280;25019;42.626;23.380;2023-02-18T08:25:46;95134.44;;;7.64;52.74
39301;BME280;25019;42.626;23.380;2023-02-18T08:28:13;95122.91;;;7.84;52.01
39301;BME280;25019;42.626;23.380;2023-02-18T08:30:43;95125.38;;;7.86;52.14
39301;BME280;25019;42.626;23.380;2023-02-18T08:33:09;95119.84;;;8.19;51.68
39301;BME280;25019;42.626;23.380;2023-02-18T08:35:35;95125.78;;;8.40;51.11
39301;BME280;25019;42.626;23.380;2023-02-18T08:38:01;95115.19;;;8.40;50.02
39301;BME280;25019;42.626;23.380;2023-02-18T08:40:26;95114.31;;;8.53;48.77
39301;BME280;25019;42.626;23.380;2023-02-18T08:42:52;95095.72;;;8.60;47.55
39301;BME280;25019;42.626;23.380;2023-02-18T08:45:18;95105.81;;;8.69;46.96
39301;BME280;25019;42.626;23.380;2023-02-18T08:47:43;94994.63;;;8.00;46.78
39301;BME280;25019;42.626;23.380;2023-02-18T08:50:09;95098.97;;;8.80;46.73
39301;BME280;25019;42.626;23.380;2023-02-18T08:52:35;95100.63;;;8.56;47.17
39301;BME280;25019;42.626;23.380;2023-02-18T08:55:01;95104.78;;;8.20;47.84
39301;BME280;25019;42.626;23.380;2023-02-18T08:57:28;95110.16;;;8.06;48.35
39301;BME280;25019;42.626;23.380;2023-02-18T08:59:53;95124.41;;;7.80;49.36
39301;BME280;25019;42.626;23.380;2023-02-18T09:02:19;95119.19;;;7.99;48.94
39301;BME280;25019;42.626;23.380;2023-02-18T09:04:44;95120.13;;;8.36;48.45
39301;BME280;25019;42.626;23.380;2023-02-18T09:07:10;95120.31;;;8.09;48.86
39301;BME280;25019;42.626;23.380;2023-02-18T09:09:36;95125.66;;;8.03;48.80
39301;BME280;25019;42.626;23.380;2023-02-18T09:12:01;95128.69;;;8.06;48.75
39301;BME280;25019;42.626;23.380;2023-02-18T09:14:27;95128.50;;;8.08;48.55
39301;BME280;25019;42.626;23.380;2023-02-18T09:16:53;95129.31;;;8.34;48.52
39301;BME280;25019;42.626;23.380;2023-02-18T09:19:18;95117.03;;;8.39;48.82
39301;BME280;25019;42.626;23.380;2023-02-18T09:21:44;95128.28;;;8.60;48.27
39301;BME280;25019;42.626;23.380;2023-02-18T09:24:09;95112.25;;;8.55;47.82
39301;BME280;25019;42.626;23.380;2023-02-18T09:26:35;95118.03;;;8.71;47.76
39301;BME280;25019;42.626;23.380;2023-02-18T09:29:02;95117.19;;;8.70;47.45
39301;BME280;25019;42.626;23.380;2023-02-18T09:31:28;95041.06;;;8.21;46.39
39301;BME280;25019;42.626;23.380;2023-02-18T09:33:57;95112.75;;;8.89;46.34
39301;BME280;25019;42.626;23.380;2023-02-18T09:36:23;95106.94;;;8.80;45.87
39301;BME280;25019;42.626;23.380;2023-02-18T09:38:49;95099.78;;;8.81;45.59
39301;BME280;25019;42.626;23.380;2023-02-18T09:43:52;95098.63;;;9.14;45.58
39301;BME280;25019;42.626;23.380;2023-02-18T09:46:23;95096.22;;;9.43;44.67
39301;BME280;25019;42.626;23.380;2023-02-18T09:48:51;95080.06;;;9.63;44.97
39301;BME280;25019;42.626;23.380;2023-02-18T09:51:18;95097.66;;;9.88;45.07
39301;BME280;25019;42.626;23.380;2023-02-18T09:53:45;95045.41;;;9.46;44.98
39301;BME280;25019;42.626;23.380;2023-02-18T09:56:14;95093.53;;;9.92;44.56
39301;BME280;25019;42.626;23.380;2023-02-18T09:58:41;95042.69;;;9.65;43.74
39301;BME280;25019;42.626;23.380;2023-02-18T10:03:39;95036.88;;;9.74;43.15
39301;BME280;25019;42.626;23.380;2023-02-18T10:06:21;95080.66;;;10.19;43.07
39301;BME280;25019;42.626;23.380;2023-02-18T10:08:49;95082.69;;;9.94;44.78
39301;BME280;25019;42.626;23.380;2023-02-18T10:13:54;95088.09;;;9.87;43.93
39301;BME280;25019;42.626;23.380;2023-02-18T10:16:21;95066.88;;;9.99;43.69
39301;BME280;25019;42.626;23.380;2023-02-18T10:18:49;95068.44;;;10.30;43.88
39301;BME280;25019;42.626;23.380;2023-02-18T10:21:26;95081.31;;;10.45;44.28
39301;BME280;25019;42.626;23.380;2023-02-18T10:26:20;95071.66;;;10.32;43.56
39301;BME280;25019;42.626;23.380;2023-02-18T10:28:46;95065.53;;;10.08;44.01
39301;BME280;25019;42.626;23.380;2023-02-18T10:31:36;95066.28;;;10.51;43.35
39301;BME280;25019;42.626;23.380;2023-02-18T10:34:05;95066.16;;;10.70;43.49
39301;BME280;25019;42.626;23.380;2023-02-18T10:36:43;95054.25;;;10.84;42.71
39301;BME280;25019;42.626;23.380;2023-02-18T10:47:52;95051.19;;;11.04;42.18
39301;BME280;25019;42.626;23.380;2023-02-18T10:50:37;95036.34;;;11.20;42.16
39301;BME280;25019;42.626;23.380;2023-02-18T10:53:18;95028.44;;;11.37;41.20
39301;BME280;25019;42.626;23.380;2023-02-18T10:55:47;95008.16;;;11.48;40.67
39301;BME280;25019;42.626;23.380;2023-02-18T10:58:31;95022.25;;;11.95;40.36
39301;BME280;25019;42.626;23.380;2023-02-18T11:00:59;94948.78;;;11.77;40.13
39301;BME280;25019;42.626;23.380;2023-02-18T11:03:50;95003.47;;;12.36;39.72
39301;BME280;25019;42.626;23.380;2023-02-18T11:06:20;95009.66;;;12.41;39.09
39301;BME280;25019;42.626;23.380;2023-02-18T11:08:49;95007.56;;;12.43;39.40
39301;BME280;25019;42.626;23.380;2023-02-18T11:11:36;94909.00;;;12.04;39.43
39301;BME280;25019;42.626;23.380;2023-02-18T11:14:05;95000.38;;;12.44;38.86
39301;BME280;25019;42.626;23.380;2023-02-18T11:16:43;94982.44;;;12.56;38.66
39301;BME280;25019;42.626;23.380;2023-02-18T11:19:41;94980.16;;;12.65;38.37
39301;BME280;25019;42.626;23.380;2023-02-18T11:22:19;94980.03;;;12.77;38.24
39301;BME280;25019;42.626;23.380;2023-02-18T11:24:46;94982.34;;;12.91;37.91
39301;BME280;25019;42.626;23.380;2023-02-18T11:27:23;94963.81;;;12.79;38.36
39301;BME280;25019;42.626;23.380;2023-02-18T11:29:51;94865.41;;;12.27;38.23
39301;BME280;25019;42.626;23.380;2023-02-18T11:32:18;94963.34;;;12.87;38.97
39301;BME280;25019;42.626;23.380;2023-02-18T11:34:44;94969.88;;;12.74;39.57
39301;BME280;25019;42.626;23.380;2023-02-18T11:37:18;94953.72;;;12.81;39.14
39301;BME280;25019;42.626;23.380;2023-02-18T11:39:48;94886.25;;;12.58;38.86
39301;BME280;25019;42.626;23.380;2023-02-18T11:42:18;94942.78;;;13.04;39.09
39301;BME280;25019;42.626;23.380;2023-02-18T11:44:53;94936.97;;;13.13;38.11
39301;BME280;25019;42.626;23.380;2023-02-18T11:52:38;94912.16;;;13.40;37.73
39301;BME280;25019;42.626;23.380;2023-02-18T11:55:17;94918.03;;;13.37;38.44
39301;BME280;25019;42.626;23.380;2023-02-18T11:58:01;94896.72;;;13.42;37.59
39301;BME280;25019;42.626;23.380;2023-02-18T12:05:46;94901.78;;;13.71;37.04
39301;BME280;25019;42.626;23.380;2023-02-18T12:08:18;94905.25;;;13.71;36.79
39301;BME280;25019;42.626;23.380;2023-02-18T12:10:49;94871.81;;;13.58;36.59
39301;BME280;25019;42.626;23.380;2023-02-18T12:13:26;94890.94;;;13.88;36.58
39301;BME280;25019;42.626;23.380;2023-02-18T12:21:17;94868.88;;;14.03;35.19
39301;BME280;25019;42.626;23.380;2023-02-18T12:26:29;94869.00;;;14.23;34.97
39301;BME280;25019;42.626;23.380;2023-02-18T12:31:50;94876.59;;;14.52;34.33
39301;BME280;25019;42.626;23.380;2023-02-18T12:56:32;94824.09;;;14.89;34.75
39301;BME280;25019;42.626;23.380;2023-02-18T12:59:24;94826.22;;;14.92;34.46
39301;BME280;25019;42.626;23.380;2023-02-18T13:05:08;94842.03;;;15.20;34.48
39301;BME280;25019;42.626;23.380;2023-02-18T13:11:09;94836.97;;;15.34;35.29
39301;BME280;25019;42.626;23.380;2023-02-18T13:13:19;94782.66;;;15.28;34.62
39301;BME280;25019;42.626;23.380;2023-02-18T13:15:58;94819.28;;;15.74;34.66
39301;BME280;25019;42.626;23.380;2023-02-18T13:18:35;94824.34;;;15.91;34.61
39301;BME280;25019;42.626;23.380;2023-02-18T13:21:07;94802.69;;;15.87;34.97
39301;BME280;25019;42.626;23.380;2023-02-18T13:23:39;94819.50;;;16.09;34.91
39301;BME280;25019;42.626;23.380;2023-02-18T13:26:11;94807.72;;;15.99;35.04
39301;BME280;25019;42.626;23.380;2023-02-18T13:32:07;94819.75;;;16.17;34.34
39301;BME280;25019;42.626;23.380;2023-02-18T13:40:22;94824.06;;;16.03;32.53
39301;BME280;25019;42.626;23.380;2023-02-18T13:42:52;94820.34;;;15.88;32.54
39301;BME280;25019;42.626;23.380;2023-02-18T13:45:29;94820.06;;;15.75;32.90
39301;BME280;25019;42.626;23.380;2023-02-18T13:47:56;94816.59;;;15.74;32.98
39301;BME280;25019;42.626;23.380;2023-02-18T13:55:40;94812.88;;;15.70;32.89
39301;BME280;25019;42.626;23.380;2023-02-18T13:58:20;94812.88;;;15.60;33.20
39301;BME280;25019;42.626;23.380;2023-02-18T14:00:54;94802.44;;;15.53;33.88
39301;BME280;25019;42.626;23.380;2023-02-18T14:06:24;94799.22;;;15.15;35.03
39301;BME280;25019;42.626;23.380;2023-02-18T14:11:47;94807.78;;;14.91;35.17
39301;BME280;25019;42.626;23.380;2023-02-18T14:14:32;94810.41;;;14.80;35.83
39301;BME280;25019;42.626;23.380;2023-02-18T14:19:54;94765.13;;;14.32;36.14
39301;BME280;25019;42.626;23.380;2023-02-18T14:25:21;94829.06;;;14.60;36.45
39301;BME280;25019;42.626;23.380;2023-02-18T14:28:01;94823.91;;;14.43;36.68
39301;BME280;25019;42.626;23.380;2023-02-18T14:30:45;94835.34;;;14.28;37.16
39301;BME280;25019;42.626;23.380;2023-02-18T14:33:14;94829.97;;;14.22;36.87
39301;BME280;25019;42.626;23.380;2023-02-18T14:35:55;94833.19;;;14.19;37.10
39301;BME280;25019;42.626;23.380;2023-02-18T14:46:48;94833.00;;;13.83;37.59
39301;BME280;25019;42.626;23.380;2023-02-18T14:51:43;94834.72;;;13.62;37.80
39301;BME280;25019;42.626;23.380;2023-02-18T14:54:17;94835.53;;;13.62;38.04
39301;BME280;25019;42.626;23.380;2023-02-18T14:57:05;94829.66;;;13.60;38.09
39301;BME280;25019;42.626;23.380;2023-02-18T14:59:35;94812.22;;;13.53;38.21
39301;BME280;25019;42.626;23.380;2023-02-18T15:02:01;94813.34;;;13.57;38.38
39301;BME280;25019;42.626;23.380;2023-02-18T15:04:28;94759.72;;;13.21;38.14
39301;BME280;25019;42.626;23.380;2023-02-18T15:06:59;94818.69;;;13.57;38.58
39301;BME280;25019;42.626;23.380;2023-02-18T15:09:25;94693.22;;;12.71;38.65
39301;BME280;25019;42.626;23.380;2023-02-18T15:11:58;94819.91;;;13.44;38.60
39301;BME280;25019;42.626;23.380;2023-02-18T15:14:35;94827.06;;;13.38;39.08
39301;BME280;25019;42.626;23.380;2023-02-18T15:17:02;94817.56;;;13.20;39.30
39301;BME280;25019;42.626;23.380;2023-02-18T15:19:36;94821.75;;;13.11;39.45
39301;BME280;25019;42.626;23.380;2023-02-18T15:22:03;94817.91;;;12.96;39.96
39301;BME280;25019;42.626;23.380;2023-02-18T15:24:32;94819.78;;;12.96;39.88
39301;BME280;25019;42.626;23.380;2023-02-18T15:27:01;94818.91;;;12.90;40.15
39301;BME280;25019;42.626;23.380;2023-02-18T15:29:32;94809.50;;;12.82;40.19
39301;BME280;25019;42.626;23.380;2023-02-18T15:31:58;94812.34;;;12.70;40.48
39301;BME280;25019;42.626;23.380;2023-02-18T15:36:54;94811.56;;;12.48;41.31